Oscoda, MI (48750)

9:18 PM EDT on April 30, 2017 (GMT -0400)
Huron Shore - 1 mi north of Ausable Point | | Change Station

Elev 600 ft 44.36 °N, 83.34 °W | Updated 14 seconds ago

Overcast
Overcast
39.4 °F
Feels Like 30 °F
N
17.1
Wind Variable Wind from NE

Today
High -- | Low -- °F
--% Chance of Precip.
Yesterday
High -- | Low -- °F
Precip. -- in
Pressure 29.91 in
Visibility 10.0 miles
Clouds Overcast 500 ft
Windchill 30 °F
Dew Point 39 °F
Humidity 99%
Rainfall 0.68 in
Snow Depth Not available.
6:25 AM 8:36 PM
Waxing Crescent, 28% visible
METAR KOSC 010113Z AUTO 03013KT 10SM OVC005 04/03 A2991 RMK AO2 T00370028
Pressure 29.91 in
Visibility 10.0 miles
Clouds Overcast 500 ft
Windchill 30 °F
Dew Point 39 °F
Humidity 99%
Rainfall 0.68 in
Snow Depth Not available.
6:25 AM 8:36 PM
Waxing Crescent, 28% visible
METAR KOSC 010113Z AUTO 03013KT 10SM OVC005 04/03 A2991 RMK AO2 T00370028

Get Severe Weather Alerts

Thanks for signing up!

Be on the lookout for a verification email in your inbox.

You'll start receiving the daily forecast at 8 AM.

×

10-Day Weather Forecast

Almanac

Astronomy

Apr. 30, 2017 Rise Set
Actual Time
Civil Twilight
Nautical Twilight
Astronomical Twilight
Moon
Length of Visible Light
Length of Day
Tomorrow will be .
, % of the Moon is Illuminated

Today's Extremes

State Highs State Lows

Community

WunderPhotos

WunderBlog® & News

Nearby

Air Quality

  Air Quality AQ Index Pollutant
Not available.

Snow Depth

Station Depth Elevation

Earthquake Activity

City Distance Mag. Time & Date
Minimum magnitude displayed is 2.5.

Coastal Water Temperatures

Place Temperature

Stations

Nearby Weather Stations

Station Location Temp. Windchill Dew Point Humidity Wind Precip. Elev Updated Type
                   

Watches & Warnings

There are currently no watches in effect.